• Join FlightAware (Why Join?)
  • Login
  • US Flag 
07:47PM EST


 

Airport Tracker/Info


-or-


 

Live Flight TrackerFlight Track Log ✈ PDT4309 ✈ 22-Jun-2013 ✈ KPGV - KCLT

Flight Track Log - Related Links

Times and Time Zones

All times are in EDT time to prevent confusion due to time zone crossing. See the PDT4309 flight status page for this flight to view local times or setup timezone preferences in your user account.

Time Position Orientation Groundspeed Altitude Reporting Facility
EDT Latitude Longitude Course Direction KTS MPH feet Rate Location/Type
04:25PM 35.6498 -77.5311 277° West  Level FlightAware Approximate
04:25PM 35.6358 -77.3708 277° West 150 173 2,700  Level Washington Center
04:26PM 35.6881 -77.3744 357° North 148 170 4,000 1,200 Climbing Washington Center
04:27PM 35.7336 -77.3933 341° North 165 190 5,100 1,080 Climbing Washington Center
04:28PM 35.7306 -77.4522 266° West 129 148 6,200 1,140 Climbing Washington Center
04:29PM 35.7233 -77.5083 261° West 145 167 7,400 1,080 Climbing Washington Center
04:30PM 35.7328 -77.5725 280° West 168 193 8,400 960 Climbing Washington Center
04:31PM 35.7381 -77.6314 276° West 181 208 9,400 960 Climbing Washington Center
04:32PM 35.7453 -77.6958 278° West 186 214 10,400 840 Climbing Washington Center
04:33PM 35.7544 -77.7625 280° West 191 220 11,200 600 Climbing Washington Center
04:34PM 35.7594 -77.8369 275° West 204 235 11,700 360 Climbing Washington Center
04:35PM 35.7706 -77.9139 280° West 222 255 12,000 180 Climbing Washington Center
04:35PM 35.7694 -77.9650 268° West 241 277 12,000  Level Washington Center
04:36PM 35.7825 -78.0397 282° West 246 283 12,000  Level Washington Center
04:37PM 35.7922 -78.0783 287° West 239 275 12,000  Level Washington Center
04:38PM 35.8008 -78.1633 277° West 245 282 12,000  Level Washington Center
04:39PM 35.8117 -78.2481 279° West 250 288 12,000 -360 Level Washington Center
04:40PM 35.8097 -78.3275 268° West 259 298 11,300 -720 Descending Washington Center
04:41PM 35.8222 -78.4150 280° West 264 304 10,600 -660 Descending Washington Center
04:42PM 35.8369 -78.5025 282° West 264 304 10,000 -300 Descending Washington Center
04:43PM 35.8453 -78.5900 277° West 264 304 10,000  Level Washington Center
04:44PM 35.8578 -78.6725 281° West 253 291 10,000  Level Washington Center
04:44PM 35.8606 -78.7289 273° West 239 275 10,000  Level Washington Center
04:45PM 35.8731 -78.8014 282° West 248 285 10,000  Level Washington Center
04:46PM 35.8644 -78.8906 263° West 240 276 10,000  Level Washington Center
04:47PM 35.8558 -78.9775 263° West 240 276 10,000  Level Washington Center
04:48PM 35.8511 -79.0617 266° West 244 281 10,000  Level Washington Center
04:49PM 35.8425 -79.1458 263° West 245 282 10,000  Level Washington Center
04:50PM 35.8400 -79.2278 268° West 246 283 10,000 -120 Level Washington Center
04:52PM 35.8327 -79.2981 263° West  Level FlightAware Approximate
04:59PM 35.8006 -79.8403 270° West  Level FlightAware Approximate
05:00PM 35.8007 -79.9181 270° West  Level FlightAware Approximate
05:01PM 35.8007 -79.9959 270° West  Level FlightAware Approximate
05:02PM 35.8007 -80.0738 270° West  Level FlightAware Approximate
05:02PM 35.8119 -80.1772 211° Southwest 239 275 9,000  Level Atlanta Center
05:03PM 35.8006 -80.1516 270° West  Level FlightAware Approximate
05:03PM 35.8097 -80.2389 267° West 239 275 9,000  Level Atlanta Center
05:04PM 35.8005 -80.2294 270° West  Level FlightAware Approximate
05:04PM 35.8081 -80.3208 269° West 239 275 9,000  Level Atlanta Center
05:05PM 35.8003 -80.3072 270° West  Level FlightAware Approximate
05:05PM 35.8083 -80.4000 270° West 238 274 9,000  Level Atlanta Center
05:06PM 35.8001 -80.3850 270° West  Level FlightAware Approximate
05:06PM 35.7872 -80.4675 249° West 245 282 9,000  Level Atlanta Center
05:07PM 35.7796 -80.4487 211° Southwest  Level FlightAware Approximate
05:07PM 35.7219 -80.5192 213° Southwest 249 287 9,000  Level Atlanta Center
05:08PM 35.6608 -80.5703 214° Southwest 247 284 9,000  Level Atlanta Center
05:09PM 35.6078 -80.6133 213° Southwest 248 285 9,000  Level Atlanta Center
05:10PM 35.5486 -80.6592 212° Southwest 249 287 9,000  Level Atlanta Center
05:11PM 35.4894 -80.7075 214° Southwest 248 285 9,000  Level Atlanta Center
05:12PM 35.4303 -80.7583 215° Southwest 246 283 9,000  Level Atlanta Center
05:13PM 35.3753 -80.8039 214° Southwest 245 282 9,000  Level Atlanta Center
05:14PM 35.3156 -80.8317 201° Southwest 247 284 9,000 -300 Level Atlanta Center
05:15PM 35.2444 -80.8269 177° South 248 285 8,500 -1,260 Descending Atlanta Center
05:16PM 35.1794 -80.8167 173° South 254 292 6,600 -1,980 Descending Atlanta Center
05:17PM 35.1042 -80.8144 179° South 248 285 4,500 -1,740 Descending Atlanta Center
05:18PM 35.0658 -80.8617 225° Southwest 215 247 3,000 -1,500 Descending Atlanta Center